sensor_id;sensor_type;location;lat;lon;timestamp;P1;durP1;ratioP1;P2;durP2;ratioP2
10957;SDS011;5531;42.570;23.676;2022-07-29T00:01:06;11.27;;;10.27;;
10957;SDS011;5531;42.570;23.676;2022-07-29T00:03:37;12.77;;;11.55;;
10957;SDS011;5531;42.570;23.676;2022-07-29T00:06:07;12.80;;;11.57;;
10957;SDS011;5531;42.570;23.676;2022-07-29T00:08:36;12.38;;;11.27;;
10957;SDS011;5531;42.570;23.676;2022-07-29T00:11:05;12.70;;;11.60;;
10957;SDS011;5531;42.570;23.676;2022-07-29T00:13:34;13.50;;;12.20;;
10957;SDS011;5531;42.570;23.676;2022-07-29T00:16:03;13.30;;;12.00;;
10957;SDS011;5531;42.570;23.676;2022-07-29T00:18:32;13.43;;;12.13;;
10957;SDS011;5531;42.570;23.676;2022-07-29T00:21:04;12.85;;;11.65;;
10957;SDS011;5531;42.570;23.676;2022-07-29T00:23:33;13.27;;;11.98;;
10957;SDS011;5531;42.570;23.676;2022-07-29T00:26:02;13.55;;;12.15;;
10957;SDS011;5531;42.570;23.676;2022-07-29T00:28:31;13.35;;;12.07;;
10957;SDS011;5531;42.570;23.676;2022-07-29T00:31:00;11.98;;;10.98;;
10957;SDS011;5531;42.570;23.676;2022-07-29T00:33:29;12.23;;;11.02;;
10957;SDS011;5531;42.570;23.676;2022-07-29T00:35:58;11.90;;;10.73;;
10957;SDS011;5531;42.570;23.676;2022-07-29T00:38:27;11.38;;;10.27;;
10957;SDS011;5531;42.570;23.676;2022-07-29T00:40:56;12.63;;;11.52;;
10957;SDS011;5531;42.570;23.676;2022-07-29T00:43:25;11.85;;;10.85;;
10957;SDS011;5531;42.570;23.676;2022-07-29T00:45:54;12.85;;;11.55;;
10957;SDS011;5531;42.570;23.676;2022-07-29T00:48:23;12.13;;;11.02;;
10957;SDS011;5531;42.570;23.676;2022-07-29T00:50:52;11.60;;;10.60;;
10957;SDS011;5531;42.570;23.676;2022-07-29T00:53:22;11.13;;;10.13;;
10957;SDS011;5531;42.570;23.676;2022-07-29T00:55:55;11.10;;;10.10;;
10957;SDS011;5531;42.570;23.676;2022-07-29T00:58:25;11.52;;;10.55;;
10957;SDS011;5531;42.570;23.676;2022-07-29T01:00:55;11.70;;;10.60;;
10957;SDS011;5531;42.570;23.676;2022-07-29T01:03:26;10.73;;;9.73;;
10957;SDS011;5531;42.570;23.676;2022-07-29T01:05:55;10.30;;;9.38;;
10957;SDS011;5531;42.570;23.676;2022-07-29T01:08:24;11.30;;;10.30;;
10957;SDS011;5531;42.570;23.676;2022-07-29T01:10:56;11.25;;;9.68;;
10957;SDS011;5531;42.570;23.676;2022-07-29T01:13:25;10.70;;;9.77;;
10957;SDS011;5531;42.570;23.676;2022-07-29T01:15:56;11.10;;;9.90;;
10957;SDS011;5531;42.570;23.676;2022-07-29T01:18:33;11.75;;;10.15;;
10957;SDS011;5531;42.570;23.676;2022-07-29T01:21:20;10.93;;;9.93;;
10957;SDS011;5531;42.570;23.676;2022-07-29T01:24:01;10.80;;;9.80;;
10957;SDS011;5531;42.570;23.676;2022-07-29T01:26:55;11.13;;;10.02;;
10957;SDS011;5531;42.570;23.676;2022-07-29T01:29:31;11.18;;;10.05;;
10957;SDS011;5531;42.570;23.676;2022-07-29T01:32:05;11.70;;;10.60;;
10957;SDS011;5531;42.570;23.676;2022-07-29T01:34:39;12.02;;;10.73;;
10957;SDS011;5531;42.570;23.676;2022-07-29T01:37:15;11.48;;;10.38;;
10957;SDS011;5531;42.570;23.676;2022-07-29T01:39:48;11.63;;;10.43;;
10957;SDS011;5531;42.570;23.676;2022-07-29T01:42:23;12.10;;;10.93;;
10957;SDS011;5531;42.570;23.676;2022-07-29T01:45:02;11.57;;;10.38;;
10957;SDS011;5531;42.570;23.676;2022-07-29T01:47:41;13.20;;;11.77;;
10957;SDS011;5531;42.570;23.676;2022-07-29T01:50:14;12.38;;;11.15;;
10957;SDS011;5531;42.570;23.676;2022-07-29T01:52:47;11.60;;;10.57;;
10957;SDS011;5531;42.570;23.676;2022-07-29T01:55:23;11.93;;;10.85;;
10957;SDS011;5531;42.570;23.676;2022-07-29T01:57:58;12.23;;;11.02;;
10957;SDS011;5531;42.570;23.676;2022-07-29T02:00:32;12.52;;;11.32;;
10957;SDS011;5531;42.570;23.676;2022-07-29T02:03:04;13.57;;;12.25;;
10957;SDS011;5531;42.570;23.676;2022-07-29T02:05:39;12.95;;;11.77;;
10957;SDS011;5531;42.570;23.676;2022-07-29T02:08:10;13.43;;;12.13;;
10957;SDS011;5531;42.570;23.676;2022-07-29T02:10:43;12.85;;;11.68;;
10957;SDS011;5531;42.570;23.676;2022-07-29T02:13:14;12.98;;;11.88;;
10957;SDS011;5531;42.570;23.676;2022-07-29T02:15:47;12.93;;;11.63;;
10957;SDS011;5531;42.570;23.676;2022-07-29T02:18:18;12.85;;;11.75;;
10957;SDS011;5531;42.570;23.676;2022-07-29T02:20:52;13.38;;;12.15;;
10957;SDS011;5531;42.570;23.676;2022-07-29T02:23:24;13.65;;;12.35;;
10957;SDS011;5531;42.570;23.676;2022-07-29T02:25:56;12.68;;;11.55;;
10957;SDS011;5531;42.570;23.676;2022-07-29T02:28:26;13.90;;;12.50;;
10957;SDS011;5531;42.570;23.676;2022-07-29T02:31:00;13.95;;;12.65;;
10957;SDS011;5531;42.570;23.676;2022-07-29T02:33:31;14.13;;;12.68;;
10957;SDS011;5531;42.570;23.676;2022-07-29T02:36:02;13.55;;;12.27;;
10957;SDS011;5531;42.570;23.676;2022-07-29T02:38:31;16.05;;;13.70;;
10957;SDS011;5531;42.570;23.676;2022-07-29T02:41:15;14.48;;;12.98;;
10957;SDS011;5531;42.570;23.676;2022-07-29T02:43:47;16.27;;;14.68;;
10957;SDS011;5531;42.570;23.676;2022-07-29T02:46:26;16.83;;;15.25;;
10957;SDS011;5531;42.570;23.676;2022-07-29T02:48:59;17.40;;;15.90;;
10957;SDS011;5531;42.570;23.676;2022-07-29T02:51:34;16.13;;;14.73;;
10957;SDS011;5531;42.570;23.676;2022-07-29T02:54:10;16.27;;;14.55;;
10957;SDS011;5531;42.570;23.676;2022-07-29T02:56:43;16.70;;;15.20;;
10957;SDS011;5531;42.570;23.676;2022-07-29T02:59:13;16.85;;;15.27;;
10957;SDS011;5531;42.570;23.676;2022-07-29T03:01:50;17.55;;;15.88;;
10957;SDS011;5531;42.570;23.676;2022-07-29T03:04:21;17.00;;;15.48;;
10957;SDS011;5531;42.570;23.676;2022-07-29T03:06:55;17.45;;;15.70;;
10957;SDS011;5531;42.570;23.676;2022-07-29T03:09:27;15.95;;;14.55;;
10957;SDS011;5531;42.570;23.676;2022-07-29T03:11:58;17.17;;;15.50;;
10957;SDS011;5531;42.570;23.676;2022-07-29T03:14:29;15.80;;;14.32;;
10957;SDS011;5531;42.570;23.676;2022-07-29T03:17:02;14.60;;;13.02;;
10957;SDS011;5531;42.570;23.676;2022-07-29T03:19:31;14.55;;;13.35;;
10957;SDS011;5531;42.570;23.676;2022-07-29T03:22:01;13.90;;;12.52;;
10957;SDS011;5531;42.570;23.676;2022-07-29T03:24:31;13.75;;;12.55;;
10957;SDS011;5531;42.570;23.676;2022-07-29T03:27:01;13.88;;;12.60;;
10957;SDS011;5531;42.570;23.676;2022-07-29T03:29:31;13.35;;;12.23;;
10957;SDS011;5531;42.570;23.676;2022-07-29T03:32:05;13.77;;;12.43;;
10957;SDS011;5531;42.570;23.676;2022-07-29T03:34:35;12.15;;;11.02;;
10957;SDS011;5531;42.570;23.676;2022-07-29T03:37:05;11.35;;;10.25;;
10957;SDS011;5531;42.570;23.676;2022-07-29T03:39:36;11.43;;;9.98;;
10957;SDS011;5531;42.570;23.676;2022-07-29T03:42:10;10.93;;;10.00;;
10957;SDS011;5531;42.570;23.676;2022-07-29T03:44:42;9.95;;;8.95;;
10957;SDS011;5531;42.570;23.676;2022-07-29T03:47:17;10.80;;;9.82;;
10957;SDS011;5531;42.570;23.676;2022-07-29T03:49:51;9.85;;;8.85;;
10957;SDS011;5531;42.570;23.676;2022-07-29T03:52:22;8.68;;;7.97;;
10957;SDS011;5531;42.570;23.676;2022-07-29T03:54:51;7.95;;;7.35;;
10957;SDS011;5531;42.570;23.676;2022-07-29T03:57:23;8.55;;;7.78;;
10957;SDS011;5531;42.570;23.676;2022-07-29T03:59:55;7.13;;;6.43;;
10957;SDS011;5531;42.570;23.676;2022-07-29T04:02:27;6.70;;;6.10;;
10957;SDS011;5531;42.570;23.676;2022-07-29T04:04:57;7.75;;;6.95;;
10957;SDS011;5531;42.570;23.676;2022-07-29T04:07:26;7.35;;;6.47;;
10957;SDS011;5531;42.570;23.676;2022-07-29T04:09:55;7.78;;;7.05;;
10957;SDS011;5531;42.570;23.676;2022-07-29T04:12:24;8.02;;;7.32;;
10957;SDS011;5531;42.570;23.676;2022-07-29T04:14:53;8.02;;;7.22;;
10957;SDS011;5531;42.570;23.676;2022-07-29T04:17:23;7.60;;;6.90;;
10957;SDS011;5531;42.570;23.676;2022-07-29T04:19:54;7.25;;;6.53;;
10957;SDS011;5531;42.570;23.676;2022-07-29T04:22:23;7.43;;;6.75;;
10957;SDS011;5531;42.570;23.676;2022-07-29T04:24:56;7.65;;;6.97;;
10957;SDS011;5531;42.570;23.676;2022-07-29T04:27:37;9.77;;;6.90;;
10957;SDS011;5531;42.570;23.676;2022-07-29T04:30:25;9.13;;;6.97;;
10957;SDS011;5531;42.570;23.676;2022-07-29T04:32:55;7.07;;;6.38;;
10957;SDS011;5531;42.570;23.676;2022-07-29T04:35:33;6.53;;;6.03;;
10957;SDS011;5531;42.570;23.676;2022-07-29T04:38:05;7.18;;;6.47;;
10957;SDS011;5531;42.570;23.676;2022-07-29T04:40:34;7.43;;;6.68;;
10957;SDS011;5531;42.570;23.676;2022-07-29T04:43:08;8.65;;;6.70;;
10957;SDS011;5531;42.570;23.676;2022-07-29T04:45:43;9.20;;;7.30;;
10957;SDS011;5531;42.570;23.676;2022-07-29T04:48:18;8.23;;;7.22;;
10957;SDS011;5531;42.570;23.676;2022-07-29T04:50:50;7.18;;;6.55;;
10957;SDS011;5531;42.570;23.676;2022-07-29T04:53:22;7.43;;;6.72;;
10957;SDS011;5531;42.570;23.676;2022-07-29T04:55:51;7.35;;;6.65;;
10957;SDS011;5531;42.570;23.676;2022-07-29T04:58:20;7.93;;;6.00;;
10957;SDS011;5531;42.570;23.676;2022-07-29T05:00:50;7.65;;;6.20;;
10957;SDS011;5531;42.570;23.676;2022-07-29T05:03:19;6.68;;;6.07;;
10957;SDS011;5531;42.570;23.676;2022-07-29T05:05:50;5.97;;;5.45;;
10957;SDS011;5531;42.570;23.676;2022-07-29T05:08:20;6.50;;;5.90;;
10957;SDS011;5531;42.570;23.676;2022-07-29T05:10:49;6.93;;;6.22;;
10957;SDS011;5531;42.570;23.676;2022-07-29T05:13:18;6.57;;;5.75;;
10957;SDS011;5531;42.570;23.676;2022-07-29T05:15:47;7.20;;;6.18;;
10957;SDS011;5531;42.570;23.676;2022-07-29T05:18:16;7.28;;;5.75;;
10957;SDS011;5531;42.570;23.676;2022-07-29T05:20:45;6.55;;;5.90;;
10957;SDS011;5531;42.570;23.676;2022-07-29T05:23:16;6.55;;;5.95;;
10957;SDS011;5531;42.570;23.676;2022-07-29T05:25:46;6.47;;;5.65;;
10957;SDS011;5531;42.570;23.676;2022-07-29T05:28:15;6.95;;;5.18;;
10957;SDS011;5531;42.570;23.676;2022-07-29T05:30:44;5.78;;;5.22;;
10957;SDS011;5531;42.570;23.676;2022-07-29T05:33:14;5.75;;;5.25;;
10957;SDS011;5531;42.570;23.676;2022-07-29T05:35:43;5.95;;;5.30;;
10957;SDS011;5531;42.570;23.676;2022-07-29T05:38:12;5.20;;;4.50;;
10957;SDS011;5531;42.570;23.676;2022-07-29T05:40:44;5.28;;;4.78;;
10957;SDS011;5531;42.570;23.676;2022-07-29T05:43:13;6.70;;;4.82;;
10957;SDS011;5531;42.570;23.676;2022-07-29T05:45:42;4.90;;;4.50;;
10957;SDS011;5531;42.570;23.676;2022-07-29T05:48:11;5.88;;;4.63;;
10957;SDS011;5531;42.570;23.676;2022-07-29T05:50:40;5.20;;;4.72;;
10957;SDS011;5531;42.570;23.676;2022-07-29T05:53:09;5.35;;;4.82;;
10957;SDS011;5531;42.570;23.676;2022-07-29T05:55:41;5.05;;;4.65;;
10957;SDS011;5531;42.570;23.676;2022-07-29T05:58:10;5.68;;;4.93;;
10957;SDS011;5531;42.570;23.676;2022-07-29T06:00:39;5.45;;;5.00;;
10957;SDS011;5531;42.570;23.676;2022-07-29T06:03:09;5.45;;;4.95;;
10957;SDS011;5531;42.570;23.676;2022-07-29T06:05:38;13.88;;;6.43;;
10957;SDS011;5531;42.570;23.676;2022-07-29T06:08:07;6.13;;;4.97;;
10957;SDS011;5531;42.570;23.676;2022-07-29T06:10:36;5.32;;;4.82;;
10957;SDS011;5531;42.570;23.676;2022-07-29T06:13:08;5.47;;;4.97;;
10957;SDS011;5531;42.570;23.676;2022-07-29T06:15:38;4.88;;;4.38;;
10957;SDS011;5531;42.570;23.676;2022-07-29T06:18:07;5.15;;;4.63;;
10957;SDS011;5531;42.570;23.676;2022-07-29T06:20:36;5.00;;;4.60;;
10957;SDS011;5531;42.570;23.676;2022-07-29T06:23:05;5.90;;;4.60;;
10957;SDS011;5531;42.570;23.676;2022-07-29T06:25:35;5.35;;;4.22;;
10957;SDS011;5531;42.570;23.676;2022-07-29T06:28:04;5.28;;;4.15;;
10957;SDS011;5531;42.570;23.676;2022-07-29T06:30:36;5.05;;;4.22;;
10957;SDS011;5531;42.570;23.676;2022-07-29T06:33:05;5.47;;;4.10;;
10957;SDS011;5531;42.570;23.676;2022-07-29T06:35:34;4.05;;;3.75;;
10957;SDS011;5531;42.570;23.676;2022-07-29T06:38:04;4.43;;;4.03;;
10957;SDS011;5531;42.570;23.676;2022-07-29T06:40:33;4.90;;;3.90;;
10957;SDS011;5531;42.570;23.676;2022-07-29T06:43:14;4.15;;;3.78;;
10957;SDS011;5531;42.570;23.676;2022-07-29T06:45:46;4.30;;;3.90;;
10957;SDS011;5531;42.570;23.676;2022-07-29T06:48:15;7.60;;;4.43;;
10957;SDS011;5531;42.570;23.676;2022-07-29T06:50:44;5.78;;;4.03;;
10957;SDS011;5531;42.570;23.676;2022-07-29T06:53:13;5.68;;;4.07;;
10957;SDS011;5531;42.570;23.676;2022-07-29T06:55:42;4.30;;;3.80;;
10957;SDS011;5531;42.570;23.676;2022-07-29T06:58:12;4.57;;;3.55;;
10957;SDS011;5531;42.570;23.676;2022-07-29T07:00:46;4.05;;;3.33;;
10957;SDS011;5531;42.570;23.676;2022-07-29T07:03:15;4.82;;;3.30;;
10957;SDS011;5531;42.570;23.676;2022-07-29T07:05:45;3.78;;;3.35;;
10957;SDS011;5531;42.570;23.676;2022-07-29T07:08:14;3.42;;;3.13;;
10957;SDS011;5531;42.570;23.676;2022-07-29T07:10:44;3.50;;;3.17;;
10957;SDS011;5531;42.570;23.676;2022-07-29T07:13:14;6.00;;;3.67;;
10957;SDS011;5531;42.570;23.676;2022-07-29T07:15:46;2.95;;;2.72;;
10957;SDS011;5531;42.570;23.676;2022-07-29T07:18:16;4.00;;;3.22;;
10957;SDS011;5531;42.570;23.676;2022-07-29T07:20:45;3.53;;;3.13;;
10957;SDS011;5531;42.570;23.676;2022-07-29T07:23:14;3.50;;;3.05;;
10957;SDS011;5531;42.570;23.676;2022-07-29T07:25:43;4.18;;;3.15;;
10957;SDS011;5531;42.570;23.676;2022-07-29T07:28:12;8.10;;;3.13;;
10957;SDS011;5531;42.570;23.676;2022-07-29T07:30:41;4.72;;;3.30;;
10957;SDS011;5531;42.570;23.676;2022-07-29T07:33:13;4.25;;;3.22;;
10957;SDS011;5531;42.570;23.676;2022-07-29T07:35:42;5.25;;;3.47;;
10957;SDS011;5531;42.570;23.676;2022-07-29T07:38:11;5.63;;;3.10;;
10957;SDS011;5531;42.570;23.676;2022-07-29T07:40:41;3.60;;;3.22;;
10957;SDS011;5531;42.570;23.676;2022-07-29T07:43:11;3.55;;;3.22;;
10957;SDS011;5531;42.570;23.676;2022-07-29T07:45:40;5.00;;;2.80;;
10957;SDS011;5531;42.570;23.676;2022-07-29T07:48:09;4.72;;;3.13;;
10957;SDS011;5531;42.570;23.676;2022-07-29T07:50:41;3.20;;;3.00;;
10957;SDS011;5531;42.570;23.676;2022-07-29T07:53:10;4.05;;;2.90;;
10957;SDS011;5531;42.570;23.676;2022-07-29T08:09:21;2.60;;;2.40;;
10957;SDS011;5531;42.570;23.676;2022-07-29T08:11:51;3.17;;;2.88;;
10957;SDS011;5531;42.570;23.676;2022-07-29T08:14:20;2.90;;;2.70;;
10957;SDS011;5531;42.570;23.676;2022-07-29T08:16:49;3.25;;;2.63;;
10957;SDS011;5531;42.570;23.676;2022-07-29T08:19:19;3.55;;;2.60;;
10957;SDS011;5531;42.570;23.676;2022-07-29T08:21:48;2.47;;;2.28;;
10957;SDS011;5531;42.570;23.676;2022-07-29T08:24:18;2.53;;;2.33;;
10957;SDS011;5531;42.570;23.676;2022-07-29T08:27:02;2.78;;;2.17;;
10957;SDS011;5531;42.570;23.676;2022-07-29T08:29:31;2.60;;;2.40;;
10957;SDS011;5531;42.570;23.676;2022-07-29T08:32:00;2.95;;;2.35;;
10957;SDS011;5531;42.570;23.676;2022-07-29T08:34:30;3.20;;;2.25;;
10957;SDS011;5531;42.570;23.676;2022-07-29T08:36:59;2.53;;;2.33;;
10957;SDS011;5531;42.570;23.676;2022-07-29T08:39:28;3.17;;;2.20;;
10957;SDS011;5531;42.570;23.676;2022-07-29T08:41:57;3.45;;;2.47;;
10957;SDS011;5531;42.570;23.676;2022-07-29T08:44:29;3.53;;;2.17;;
10957;SDS011;5531;42.570;23.676;2022-07-29T08:46:59;2.75;;;2.50;;
10957;SDS011;5531;42.570;23.676;2022-07-29T08:49:28;5.70;;;3.90;;
10957;SDS011;5531;42.570;23.676;2022-07-29T08:51:57;2.90;;;2.60;;
10957;SDS011;5531;42.570;23.676;2022-07-29T08:54:28;4.00;;;2.60;;
10957;SDS011;5531;42.570;23.676;2022-07-29T08:56:57;3.78;;;2.45;;
10957;SDS011;5531;42.570;23.676;2022-07-29T08:59:30;2.75;;;2.22;;
10957;SDS011;5531;42.570;23.676;2022-07-29T09:02:02;3.95;;;2.22;;
10957;SDS011;5531;42.570;23.676;2022-07-29T09:04:33;2.33;;;2.10;;
10957;SDS011;5531;42.570;23.676;2022-07-29T09:07:04;3.22;;;2.05;;
10957;SDS011;5531;42.570;23.676;2022-07-29T09:09:34;3.45;;;2.38;;
10957;SDS011;5531;42.570;23.676;2022-07-29T09:12:05;2.78;;;2.08;;
10957;SDS011;5531;42.570;23.676;2022-07-29T09:14:39;2.70;;;2.40;;
10957;SDS011;5531;42.570;23.676;2022-07-29T09:17:09;2.35;;;2.00;;
10957;SDS011;5531;42.570;23.676;2022-07-29T09:19:38;2.65;;;2.30;;
10957;SDS011;5531;42.570;23.676;2022-07-29T09:22:07;3.10;;;2.80;;
10957;SDS011;5531;42.570;23.676;2022-07-29T09:24:38;5.25;;;4.65;;
10957;SDS011;5531;42.570;23.676;2022-07-29T09:27:10;3.90;;;3.60;;
10957;SDS011;5531;42.570;23.676;2022-07-29T09:29:50;3.13;;;2.20;;
10957;SDS011;5531;42.570;23.676;2022-07-29T09:32:25;9.27;;;5.32;;
10957;SDS011;5531;42.570;23.676;2022-07-29T09:37:46;2.42;;;2.22;;
10957;SDS011;5531;42.570;23.676;2022-07-29T09:40:16;2.97;;;2.60;;
10957;SDS011;5531;42.570;23.676;2022-07-29T09:42:46;5.10;;;2.80;;
10957;SDS011;5531;42.570;23.676;2022-07-29T09:45:28;3.25;;;2.80;;
10957;SDS011;5531;42.570;23.676;2022-07-29T09:47:59;3.60;;;2.50;;
10957;SDS011;5531;42.570;23.676;2022-07-29T09:50:41;3.33;;;2.50;;
10957;SDS011;5531;42.570;23.676;2022-07-29T09:53:12;3.03;;;2.72;;
10957;SDS011;5531;42.570;23.676;2022-07-29T09:55:58;3.85;;;2.80;;
10957;SDS011;5531;42.570;23.676;2022-07-29T09:58:28;4.00;;;2.80;;
10957;SDS011;5531;42.570;23.676;2022-07-29T10:01:01;3.05;;;2.80;;
10957;SDS011;5531;42.570;23.676;2022-07-29T10:03:31;2.95;;;2.72;;
10957;SDS011;5531;42.570;23.676;2022-07-29T10:06:07;3.00;;;2.75;;
10957;SDS011;5531;42.570;23.676;2022-07-29T10:08:38;3.10;;;2.90;;
10957;SDS011;5531;42.570;23.676;2022-07-29T10:11:10;4.18;;;3.03;;
10957;SDS011;5531;42.570;23.676;2022-07-29T10:13:41;4.20;;;2.90;;
10957;SDS011;5531;42.570;23.676;2022-07-29T10:16:15;3.30;;;2.83;;
10957;SDS011;5531;42.570;23.676;2022-07-29T10:18:44;4.05;;;3.28;;
10957;SDS011;5531;42.570;23.676;2022-07-29T10:21:14;3.22;;;2.95;;
10957;SDS011;5531;42.570;23.676;2022-07-29T10:23:43;3.40;;;2.83;;
10957;SDS011;5531;42.570;23.676;2022-07-29T10:26:13;3.85;;;2.90;;
10957;SDS011;5531;42.570;23.676;2022-07-29T10:28:43;3.28;;;3.03;;
10957;SDS011;5531;42.570;23.676;2022-07-29T10:31:22;3.20;;;2.88;;
10957;SDS011;5531;42.570;23.676;2022-07-29T10:34:04;3.55;;;2.90;;
10957;SDS011;5531;42.570;23.676;2022-07-29T10:36:46;4.47;;;3.10;;
10957;SDS011;5531;42.570;23.676;2022-07-29T10:39:26;5.70;;;3.40;;
10957;SDS011;5531;42.570;23.676;2022-07-29T10:42:11;3.78;;;3.33;;
10957;SDS011;5531;42.570;23.676;2022-07-29T10:44:45;4.18;;;3.03;;
10957;SDS011;5531;42.570;23.676;2022-07-29T10:47:25;3.40;;;3.10;;
10957;SDS011;5531;42.570;23.676;2022-07-29T10:49:56;3.70;;;3.13;;
10957;SDS011;5531;42.570;23.676;2022-07-29T10:55:35;3.58;;;3.28;;
10957;SDS011;5531;42.570;23.676;2022-07-29T10:58:11;3.80;;;3.50;;
10957;SDS011;5531;42.570;23.676;2022-07-29T11:00:44;3.55;;;3.17;;
10957;SDS011;5531;42.570;23.676;2022-07-29T11:06:17;3.50;;;3.20;;
10957;SDS011;5531;42.570;23.676;2022-07-29T11:08:46;4.45;;;3.40;;
10957;SDS011;5531;42.570;23.676;2022-07-29T11:11:45;3.60;;;3.03;;
10957;SDS011;5531;42.570;23.676;2022-07-29T11:14:14;3.22;;;2.85;;
10957;SDS011;5531;42.570;23.676;2022-07-29T11:17:00;4.43;;;2.95;;
10957;SDS011;5531;42.570;23.676;2022-07-29T11:19:34;6.30;;;3.00;;
10957;SDS011;5531;42.570;23.676;2022-07-29T11:22:07;3.45;;;3.15;;
10957;SDS011;5531;42.570;23.676;2022-07-29T11:24:38;3.75;;;3.20;;
10957;SDS011;5531;42.570;23.676;2022-07-29T11:27:07;4.38;;;2.75;;
10957;SDS011;5531;42.570;23.676;2022-07-29T11:29:38;3.40;;;2.97;;
10957;SDS011;5531;42.570;23.676;2022-07-29T11:32:15;3.10;;;2.80;;
10957;SDS011;5531;42.570;23.676;2022-07-29T11:34:49;3.47;;;3.00;;
10957;SDS011;5531;42.570;23.676;2022-07-29T11:37:47;3.40;;;3.10;;
10957;SDS011;5531;42.570;23.676;2022-07-29T11:43:50;3.28;;;2.97;;
10957;SDS011;5531;42.570;23.676;2022-07-29T11:49:12;3.92;;;2.90;;
10957;SDS011;5531;42.570;23.676;2022-07-29T11:51:44;3.42;;;3.13;;
10957;SDS011;5531;42.570;23.676;2022-07-29T11:54:21;4.25;;;2.97;;
10957;SDS011;5531;42.570;23.676;2022-07-29T11:56:53;4.15;;;2.90;;
10957;SDS011;5531;42.570;23.676;2022-07-29T11:59:23;4.28;;;2.95;;
10957;SDS011;5531;42.570;23.676;2022-07-29T12:01:53;4.55;;;3.30;;
10957;SDS011;5531;42.570;23.676;2022-07-29T12:04:22;4.30;;;3.20;;
10957;SDS011;5531;42.570;23.676;2022-07-29T12:06:54;4.32;;;3.53;;
10957;SDS011;5531;42.570;23.676;2022-07-29T12:09:24;3.95;;;3.30;;
10957;SDS011;5531;42.570;23.676;2022-07-29T12:11:56;4.22;;;3.92;;
10957;SDS011;5531;42.570;23.676;2022-07-29T12:14:26;4.32;;;3.42;;
10957;SDS011;5531;42.570;23.676;2022-07-29T12:16:56;3.60;;;3.30;;
10957;SDS011;5531;42.570;23.676;2022-07-29T12:19:26;4.25;;;3.55;;
10957;SDS011;5531;42.570;23.676;2022-07-29T12:21:58;4.20;;;3.42;;
10957;SDS011;5531;42.570;23.676;2022-07-29T12:24:28;3.83;;;3.40;;
10957;SDS011;5531;42.570;23.676;2022-07-29T12:27:11;3.55;;;3.25;;
10957;SDS011;5531;42.570;23.676;2022-07-29T12:29:45;3.58;;;3.30;;
10957;SDS011;5531;42.570;23.676;2022-07-29T12:32:23;3.83;;;3.53;;
10957;SDS011;5531;42.570;23.676;2022-07-29T12:34:52;4.72;;;3.90;;
10957;SDS011;5531;42.570;23.676;2022-07-29T12:37:24;4.15;;;3.40;;
10957;SDS011;5531;42.570;23.676;2022-07-29T12:39:53;3.95;;;3.28;;
10957;SDS011;5531;42.570;23.676;2022-07-29T12:42:22;3.15;;;2.95;;
10957;SDS011;5531;42.570;23.676;2022-07-29T12:44:51;4.28;;;3.28;;
10957;SDS011;5531;42.570;23.676;2022-07-29T12:47:21;4.55;;;4.15;;
10957;SDS011;5531;42.570;23.676;2022-07-29T12:49:50;3.70;;;3.40;;
10957;SDS011;5531;42.570;23.676;2022-07-29T12:52:39;3.42;;;3.10;;
10957;SDS011;5531;42.570;23.676;2022-07-29T12:55:08;4.70;;;3.45;;
10957;SDS011;5531;42.570;23.676;2022-07-29T12:57:47;3.30;;;3.00;;
10957;SDS011;5531;42.570;23.676;2022-07-29T13:00:21;5.10;;;2.92;;
10957;SDS011;5531;42.570;23.676;2022-07-29T13:02:54;3.83;;;3.13;;
10957;SDS011;5531;42.570;23.676;2022-07-29T13:05:23;4.28;;;2.90;;
10957;SDS011;5531;42.570;23.676;2022-07-29T13:08:12;3.38;;;3.00;;
10957;SDS011;5531;42.570;23.676;2022-07-29T13:10:43;4.65;;;3.30;;
10957;SDS011;5531;42.570;23.676;2022-07-29T13:13:13;4.97;;;2.80;;
10957;SDS011;5531;42.570;23.676;2022-07-29T13:15:43;3.30;;;3.00;;
10957;SDS011;5531;42.570;23.676;2022-07-29T13:21:10;3.33;;;3.13;;
10957;SDS011;5531;42.570;23.676;2022-07-29T13:23:43;3.85;;;3.08;;
10957;SDS011;5531;42.570;23.676;2022-07-29T13:26:12;3.47;;;3.15;;
10957;SDS011;5531;42.570;23.676;2022-07-29T13:28:41;3.53;;;2.90;;
10957;SDS011;5531;42.570;23.676;2022-07-29T13:31:10;3.90;;;3.20;;
10957;SDS011;5531;42.570;23.676;2022-07-29T13:33:39;5.72;;;3.40;;
10957;SDS011;5531;42.570;23.676;2022-07-29T13:36:08;3.55;;;3.25;;
10957;SDS011;5531;42.570;23.676;2022-07-29T13:38:38;3.55;;;3.20;;
10957;SDS011;5531;42.570;23.676;2022-07-29T13:41:10;3.45;;;3.00;;
10957;SDS011;5531;42.570;23.676;2022-07-29T13:43:39;5.97;;;3.17;;
10957;SDS011;5531;42.570;23.676;2022-07-29T13:46:08;3.67;;;3.20;;
10957;SDS011;5531;42.570;23.676;2022-07-29T13:48:37;3.97;;;3.58;;
10957;SDS011;5531;42.570;23.676;2022-07-29T13:51:06;4.53;;;3.70;;
10957;SDS011;5531;42.570;23.676;2022-07-29T13:53:35;4.45;;;3.65;;
10957;SDS011;5531;42.570;23.676;2022-07-29T13:56:05;3.90;;;3.50;;
10957;SDS011;5531;42.570;23.676;2022-07-29T13:58:36;5.38;;;3.67;;
10957;SDS011;5531;42.570;23.676;2022-07-29T14:01:06;4.57;;;3.50;;
10957;SDS011;5531;42.570;23.676;2022-07-29T14:03:35;5.38;;;3.60;;
10957;SDS011;5531;42.570;23.676;2022-07-29T14:06:06;4.30;;;3.45;;
10957;SDS011;5531;42.570;23.676;2022-07-29T14:08:35;5.72;;;3.92;;
10957;SDS011;5531;42.570;23.676;2022-07-29T14:11:05;3.72;;;3.42;;
10957;SDS011;5531;42.570;23.676;2022-07-29T14:13:34;4.38;;;3.60;;
10957;SDS011;5531;42.570;23.676;2022-07-29T14:16:05;4.05;;;3.75;;
10957;SDS011;5531;42.570;23.676;2022-07-29T14:18:35;4.55;;;3.58;;
10957;SDS011;5531;42.570;23.676;2022-07-29T14:21:04;3.90;;;3.60;;
10957;SDS011;5531;42.570;23.676;2022-07-29T14:23:33;7.03;;;3.20;;
10957;SDS011;5531;42.570;23.676;2022-07-29T14:26:02;3.78;;;3.22;;
10957;SDS011;5531;42.570;23.676;2022-07-29T14:28:31;3.88;;;3.25;;
10957;SDS011;5531;42.570;23.676;2022-07-29T14:31:03;3.70;;;3.20;;
10957;SDS011;5531;42.570;23.676;2022-07-29T14:33:32;4.95;;;3.30;;
10957;SDS011;5531;42.570;23.676;2022-07-29T14:36:01;3.90;;;3.58;;
10957;SDS011;5531;42.570;23.676;2022-07-29T14:38:30;3.90;;;3.53;;
10957;SDS011;5531;42.570;23.676;2022-07-29T14:40:59;4.38;;;3.30;;
10957;SDS011;5531;42.570;23.676;2022-07-29T14:43:28;4.05;;;3.53;;
10957;SDS011;5531;42.570;23.676;2022-07-29T14:45:57;4.55;;;3.17;;
10957;SDS011;5531;42.570;23.676;2022-07-29T14:48:29;4.90;;;3.33;;
10957;SDS011;5531;42.570;23.676;2022-07-29T14:50:58;4.65;;;3.40;;
10957;SDS011;5531;42.570;23.676;2022-07-29T14:53:27;4.22;;;3.60;;
10957;SDS011;5531;42.570;23.676;2022-07-29T14:55:56;3.92;;;3.50;;
10957;SDS011;5531;42.570;23.676;2022-07-29T14:58:25;3.60;;;3.30;;
10957;SDS011;5531;42.570;23.676;2022-07-29T15:00:54;4.10;;;3.53;;
10957;SDS011;5531;42.570;23.676;2022-07-29T15:03:23;3.50;;;3.13;;
10957;SDS011;5531;42.570;23.676;2022-07-29T15:05:55;4.32;;;3.45;;
10957;SDS011;5531;42.570;23.676;2022-07-29T15:08:25;4.10;;;3.63;;
10957;SDS011;5531;42.570;23.676;2022-07-29T15:10:55;4.60;;;3.70;;
10957;SDS011;5531;42.570;23.676;2022-07-29T15:13:26;3.92;;;3.55;;
10957;SDS011;5531;42.570;23.676;2022-07-29T15:15:55;3.72;;;3.22;;
10957;SDS011;5531;42.570;23.676;2022-07-29T15:18:24;3.70;;;3.20;;
10957;SDS011;5531;42.570;23.676;2022-07-29T15:20:55;3.30;;;3.00;;
10957;SDS011;5531;42.570;23.676;2022-07-29T15:23:25;3.90;;;3.60;;
10957;SDS011;5531;42.570;23.676;2022-07-29T15:25:54;3.95;;;3.65;;
10957;SDS011;5531;42.570;23.676;2022-07-29T15:28:24;3.85;;;3.55;;
10957;SDS011;5531;42.570;23.676;2022-07-29T15:30:53;3.85;;;3.33;;
10957;SDS011;5531;42.570;23.676;2022-07-29T15:33:22;3.92;;;3.25;;
10957;SDS011;5531;42.570;23.676;2022-07-29T15:35:51;4.13;;;3.47;;
10957;SDS011;5531;42.570;23.676;2022-07-29T15:38:22;4.20;;;3.80;;